Star Princess — ZCDD6 — position and weather

sailwx.info

Track history (hours):
 
Tides and Currents Weather Stations Pressure Air Temp Water Temp Dewpoint Dewpoint Depression Visibility Wind Speed Wind Dir Waves Ship Positions

Star Princess

Operator: Princess Cruises

Last reported at 2017-Aug-22 11:00 UTC. Time now 2017-Aug-23 08:04 UTC.
Position N 59°06' W 135°18'.

Length 289.6 m; beam 36 m; draft 8.4 m.

Type: Ship. MMSI: 310361000.

Wind from 010 at 5 knots

Barometer 1009.1 mb
Air temperature 12.8 ° C
Visibility: greater than 5.4 NM
Dewpoint 10.9 ° C
Water temperature 11.3 ° C

Date/timePositionNaut miles runAvg speedWind from/ knotsBaromVisibWave heightAir tempDewpointWater temp
2017-Aug-22 11:00N 59°06' W 135°18'56 9.4 010 / 51009.1 5.4 12.810.911.3
2017-Aug-22 05:02N 58°10' W 135°19'112.2
2017-Aug-22 04:55N 58°11' W 135°22'512.0
2017-Aug-22 04:28N 58°13' W 135°30'612.4
2017-Aug-22 03:58N 58°17' W 135°41'612.2
2017-Aug-22 03:30N 58°19' W 135°51'611.6
2017-Aug-22 03:00N 58°23' W 135°58'612.6
2017-Aug-22 02:30N 58°29' W 136°03'611.8
2017-Aug-22 02:00N 58°35' W 136°03'3 6.8
2017-Aug-22 01:31N 58°38' W 136°03'5 9.9
2017-Aug-22 01:00N 58°43' W 136°08'712.7
2017-Aug-22 00:29N 58°46' W 136°19'2013.2
2017-Aug-21 23:00N 58°54' W 136°54'20 4.7 330 / 121009.1 2.2 10.5 8.0 7.5
2017-Aug-21 18:43N 58°46' W 136°19'417.3
2017-Aug-21 18:30N 58°43' W 136°14'714.7
2017-Aug-21 18:00N 58°38' W 136°03'2 4.4
2017-Aug-21 17:30N 58°36' W 136°02'917.2
2017-Aug-21 17:00N 58°28' W 136°02'5 9.3
2017-Aug-21 16:30N 58°23' W 135°59'611.6
2017-Aug-21 16:00N 58°20' W 136°07'120 7.0
2017-Aug-20 23:00N 59°54' W 138°30'   300 / 121009.1 5.4 10.3 8.513.5
2017-Aug-17 23:53N 58°19' W 136°09'717.9
2017-Aug-17 23:30N 58°23' W 135°59'714.0
2017-Aug-17 23:00N 58°30' W 136°03'815.9
2017-Aug-17 22:29N 58°38' W 136°03'510.3
2017-Aug-17 22:00N 58°42' W 136°08'4 0.6
2017-Aug-17 15:35N 58°44' W 136°14'117.4
2017-Aug-17 15:30N 58°43' W 136°12'612.6
2017-Aug-17 15:00N 58°38' W 136°03'713.3
2017-Aug-17 14:30N 58°32' W 136°04'815.4
2017-Aug-17 14:00N 58°25' W 135°57'611.6
2017-Aug-17 13:29N 58°19' W 135°53'510.6
2017-Aug-17 13:00N 58°18' W 135°44'510.6
2017-Aug-17 12:30N 58°16' W 135°34'611.2
2017-Aug-17 12:00N 58°14' W 135°25'1312.6
2017-Aug-17 11:00N 58°06' W 135°06'66 2.8 100 / 211015.010.8 12.410.313.5
2017-Aug-16 11:00N 59°12' W 135°18'119 4.8 160 / 111008.510.8 10.3 8.312.4
2017-Aug-15 10:00N 57°24' W 133°42'13612.3 170 / 371012.010.8 12.310.613.5
2017-Aug-14 23:00N 55°24' W 131°48'38 3.2 130 / 281019.110.8 16.512.514.2
2017-Aug-14 11:00N 54°54' W 131°06'19216.0 160 / 281014.0 5.4 13.411.312.5
2017-Aug-13 23:00N 51°54' W 129°12'937.4 190 / 231013.9 5.4 15.311.814.5
2017-Aug-13 22:45N 52°02' W 129°19'416.4
2017-Aug-13 22:30N 51°58' W 129°15'816.5
2017-Aug-13 22:00N 51°52' W 129°07'816.2
2017-Aug-13 21:31N 51°45' W 128°59'816.3
2017-Aug-13 21:00N 51°39' W 128°51'815.8
2017-Aug-13 20:30N 51°32' W 128°44'816.5
2017-Aug-13 20:00N 51°26' W 128°36'816.4
2017-Aug-13 19:31N 51°19' W 128°28'816.0
2017-Aug-13 19:01N 51°13' W 128°20'816.3
2017-Aug-13 18:30N 51°08' W 128°09'816.5
2017-Aug-13 18:01N 51°04' W 127°58'816.4
2017-Aug-13 17:31N 50°59' W 127°48'714.4
2017-Aug-13 17:00N 50°55' W 127°39'1019.0
2017-Aug-13 16:30N 50°50' W 127°26'918.5
2017-Aug-13 16:00N 50°46' W 127°12'918.3
2017-Aug-13 15:30N 50°43' W 126°59'917.2
2017-Aug-13 14:59N 50°38' W 126°47'914.3
2017-Aug-13 14:23N 50°31' W 126°38'513.0
2017-Aug-13 13:59N 50°30' W 126°30'3016.6
2017-Aug-13 12:12N 50°22' W 125°45'617.4
2017-Aug-13 11:52N 50°23' W 125°36'615.9
2017-Aug-13 11:28N 50°20' W 125°27'715.8
2017-Aug-13 11:00N 50°13' W 125°23'713.3
2017-Aug-13 10:30N 50°07' W 125°20'611.5
2017-Aug-13 10:00N 50°03' W 125°14'611.2
2017-Aug-13 09:30N 49°58' W 125°10'612.5
2017-Aug-13 09:00N 49°53' W 125°03'510.0
2017-Aug-13 08:31N 49°50' W 124°57'510.8
2017-Aug-13 08:00N 49°46' W 124°51'611.9
2017-Aug-13 07:30N 49°42' W 124°45'612.0
2017-Aug-13 07:00N 49°37' W 124°39'611.6
2017-Aug-13 06:30N 49°33' W 124°33'611.8
2017-Aug-13 06:01N 49°28' W 124°27'612.0
2017-Aug-13 05:31N 49°25' W 124°20'611.7
2017-Aug-13 05:01N 49°24' W 124°11'611.8
2017-Aug-13 04:31N 49°23' W 124°02'611.8
2017-Aug-13 04:01N 49°22' W 123°53'611.8
2017-Aug-13 03:30N 49°21' W 123°44'611.8
2017-Aug-13 03:00N 49°20' W 123°35'612.6
2017-Aug-13 02:31N 49°19' W 123°25'612.4
2017-Aug-13 02:01N 49°19' W 123°16'611.5
2017-Aug-13 01:30N 49°18' W 123°07'1 2.1
2017-Aug-13 00:57N 49°17' W 123°06'0 0.0
2017-Aug-13 00:30N 49°17' W 123°06'0 0.0
2017-Aug-13 00:00N 49°17' W 123°06'0 0.0
2017-Aug-12 23:27N 49°17' W 123°06'0 0.0
2017-Aug-12 23:00N 49°17' W 123°06'0 0.0
2017-Aug-12 22:30N 49°17' W 123°06'0 0.0
2017-Aug-12 21:56N 49°17' W 123°06'0 0.0
2017-Aug-12 21:29N 49°17' W 123°06'0 0.0
2017-Aug-12 20:56N 49°17' W 123°06'0 0.0
2017-Aug-12 20:23N 49°17' W 123°06'0 0.0
2017-Aug-12 19:55N 49°17' W 123°06'0 0.0
2017-Aug-12 19:25N 49°17' W 123°06'0 0.0
2017-Aug-12 18:49N 49°17' W 123°06'0 0.0
2017-Aug-12 18:28N 49°17' W 123°06'0 0.0
2017-Aug-12 17:58N 49°17' W 123°06'0 0.0
2017-Aug-12 17:30N 49°17' W 123°06'0 0.0
2017-Aug-12 16:54N 49°17' W 123°06'0 0.0
2017-Aug-12 16:30N 49°17' W 123°06'0 0.0
2017-Aug-12 16:00N 49°17' W 123°06'0 0.0
2017-Aug-12 15:30N 49°17' W 123°06'0 0.0
2017-Aug-12 14:59N 49°17' W 123°06'0 0.0
2017-Aug-12 14:29N 49°17' W 123°06'0 0.0
2017-Aug-12 14:00N 49°17' W 123°06'0 0.4
2017-Aug-12 13:31N 49°17' W 123°06'3 5.7
2017-Aug-12 13:00N 49°19' W 123°10'510.5
2017-Aug-12 12:31N 49°18' W 123°18'510.5
2017-Aug-12 12:01N 49°19' W 123°26'510.7
2017-Aug-12 11:31N 49°19' W 123°34'510.9
2017-Aug-12 11:00N 49°19' W 123°42'54137484.5
2017-Aug-12 11:00N 40°18' W 123°48'   260 / 261011.9 5.4 18.316.521.3
Track history (hours):
 
Tides and Currents Weather Stations Pressure Air Temp Water Temp Dewpoint Dewpoint Depression Visibility Wind Speed Wind Dir Waves Ship Positions

Star Princess

Operator: Princess Cruises

Last reported at 2017-Aug-22 11:00 UTC. Time now 2017-Aug-23 08:04 UTC.
Position N 59°06' W 135°18'.

Length 289.6 m; beam 36 m; draft 8.4 m.

Type: Ship. MMSI: 310361000.

Wind from 010 at 5 knots

Barometer 1009.1 mb
Air temperature 12.8 ° C
Visibility: greater than 5.4 NM
Dewpoint 10.9 ° C
Water temperature 11.3 ° C

Date/timePositionNaut miles runAvg speedWind from/ knotsBaromVisibWave heightAir tempDewpointWater temp
2017-Aug-22 11:00N 59°06' W 135°18'56 9.4 010 / 51009.1 5.4 12.810.911.3
2017-Aug-22 05:02N 58°10' W 135°19'112.2
2017-Aug-22 04:55N 58°11' W 135°22'512.0
2017-Aug-22 04:28N 58°13' W 135°30'612.4
2017-Aug-22 03:58N 58°17' W 135°41'612.2
2017-Aug-22 03:30N 58°19' W 135°51'611.6
2017-Aug-22 03:00N 58°23' W 135°58'612.6
2017-Aug-22 02:30N 58°29' W 136°03'611.8
2017-Aug-22 02:00N 58°35' W 136°03'3 6.8
2017-Aug-22 01:31N 58°38' W 136°03'5 9.9
2017-Aug-22 01:00N 58°43' W 136°08'712.7
2017-Aug-22 00:29N 58°46' W 136°19'2013.2
2017-Aug-21 23:00N 58°54' W 136°54'20 4.7 330 / 121009.1 2.2 10.5 8.0 7.5
2017-Aug-21 18:43N 58°46' W 136°19'417.3
2017-Aug-21 18:30N 58°43' W 136°14'714.7
2017-Aug-21 18:00N 58°38' W 136°03'2 4.4
2017-Aug-21 17:30N 58°36' W 136°02'917.2
2017-Aug-21 17:00N 58°28' W 136°02'5 9.3
2017-Aug-21 16:30N 58°23' W 135°59'611.6
2017-Aug-21 16:00N 58°20' W 136°07'120 7.0
2017-Aug-20 23:00N 59°54' W 138°30'   300 / 121009.1 5.4 10.3 8.513.5
2017-Aug-17 23:53N 58°19' W 136°09'717.9
2017-Aug-17 23:30N 58°23' W 135°59'714.0
2017-Aug-17 23:00N 58°30' W 136°03'815.9
2017-Aug-17 22:29N 58°38' W 136°03'510.3
2017-Aug-17 22:00N 58°42' W 136°08'4 0.6
2017-Aug-17 15:35N 58°44' W 136°14'117.4
2017-Aug-17 15:30N 58°43' W 136°12'612.6
2017-Aug-17 15:00N 58°38' W 136°03'713.3
2017-Aug-17 14:30N 58°32' W 136°04'815.4
2017-Aug-17 14:00N 58°25' W 135°57'611.6
2017-Aug-17 13:29N 58°19' W 135°53'510.6
2017-Aug-17 13:00N 58°18' W 135°44'510.6
2017-Aug-17 12:30N 58°16' W 135°34'611.2
2017-Aug-17 12:00N 58°14' W 135°25'1312.6
2017-Aug-17 11:00N 58°06' W 135°06'66 2.8 100 / 211015.010.8 12.410.313.5
2017-Aug-16 11:00N 59°12' W 135°18'119 4.8 160 / 111008.510.8 10.3 8.312.4
2017-Aug-15 10:00N 57°24' W 133°42'13612.3 170 / 371012.010.8 12.310.613.5
2017-Aug-14 23:00N 55°24' W 131°48'38 3.2 130 / 281019.110.8 16.512.514.2
2017-Aug-14 11:00N 54°54' W 131°06'19216.0 160 / 281014.0 5.4 13.411.312.5
2017-Aug-13 23:00N 51°54' W 129°12'937.4 190 / 231013.9 5.4 15.311.814.5
2017-Aug-13 22:45N 52°02' W 129°19'416.4
2017-Aug-13 22:30N 51°58' W 129°15'816.5
2017-Aug-13 22:00N 51°52' W 129°07'816.2
2017-Aug-13 21:31N 51°45' W 128°59'816.3
2017-Aug-13 21:00N 51°39' W 128°51'815.8
2017-Aug-13 20:30N 51°32' W 128°44'816.5
2017-Aug-13 20:00N 51°26' W 128°36'816.4
2017-Aug-13 19:31N 51°19' W 128°28'816.0
2017-Aug-13 19:01N 51°13' W 128°20'816.3
2017-Aug-13 18:30N 51°08' W 128°09'816.5
2017-Aug-13 18:01N 51°04' W 127°58'816.4
2017-Aug-13 17:31N 50°59' W 127°48'714.4
2017-Aug-13 17:00N 50°55' W 127°39'1019.0
2017-Aug-13 16:30N 50°50' W 127°26'918.5
2017-Aug-13 16:00N 50°46' W 127°12'918.3
2017-Aug-13 15:30N 50°43' W 126°59'917.2
2017-Aug-13 14:59N 50°38' W 126°47'914.3
2017-Aug-13 14:23N 50°31' W 126°38'513.0
2017-Aug-13 13:59N 50°30' W 126°30'3016.6
2017-Aug-13 12:12N 50°22' W 125°45'617.4
2017-Aug-13 11:52N 50°23' W 125°36'615.9
2017-Aug-13 11:28N 50°20' W 125°27'715.8
2017-Aug-13 11:00N 50°13' W 125°23'713.3
2017-Aug-13 10:30N 50°07' W 125°20'611.5
2017-Aug-13 10:00N 50°03' W 125°14'611.2
2017-Aug-13 09:30N 49°58' W 125°10'612.5
2017-Aug-13 09:00N 49°53' W 125°03'510.0
2017-Aug-13 08:31N 49°50' W 124°57'510.8
2017-Aug-13 08:00N 49°46' W 124°51'611.9
2017-Aug-13 07:30N 49°42' W 124°45'612.0
2017-Aug-13 07:00N 49°37' W 124°39'611.6
2017-Aug-13 06:30N 49°33' W 124°33'611.8
2017-Aug-13 06:01N 49°28' W 124°27'612.0
2017-Aug-13 05:31N 49°25' W 124°20'611.7
2017-Aug-13 05:01N 49°24' W 124°11'611.8
2017-Aug-13 04:31N 49°23' W 124°02'611.8
2017-Aug-13 04:01N 49°22' W 123°53'611.8
2017-Aug-13 03:30N 49°21' W 123°44'611.8
2017-Aug-13 03:00N 49°20' W 123°35'612.6
2017-Aug-13 02:31N 49°19' W 123°25'612.4
2017-Aug-13 02:01N 49°19' W 123°16'611.5
2017-Aug-13 01:30N 49°18' W 123°07'1 2.1
2017-Aug-13 00:57N 49°17' W 123°06'0 0.0
2017-Aug-13 00:30N 49°17' W 123°06'0 0.0
2017-Aug-13 00:00N 49°17' W 123°06'0 0.0
2017-Aug-12 23:27N 49°17' W 123°06'0 0.0
2017-Aug-12 23:00N 49°17' W 123°06'0 0.0
2017-Aug-12 22:30N 49°17' W 123°06'0 0.0
2017-Aug-12 21:56N 49°17' W 123°06'0 0.0
2017-Aug-12 21:29N 49°17' W 123°06'0 0.0
2017-Aug-12 20:56N 49°17' W 123°06'0 0.0
2017-Aug-12 20:23N 49°17' W 123°06'0 0.0
2017-Aug-12 19:55N 49°17' W 123°06'0 0.0
2017-Aug-12 19:25N 49°17' W 123°06'0 0.0
2017-Aug-12 18:49N 49°17' W 123°06'0 0.0
2017-Aug-12 18:28N 49°17' W 123°06'0 0.0
2017-Aug-12 17:58N 49°17' W 123°06'0 0.0
2017-Aug-12 17:30N 49°17' W 123°06'0 0.0
2017-Aug-12 16:54N 49°17' W 123°06'0 0.0
2017-Aug-12 16:30N 49°17' W 123°06'0 0.0
2017-Aug-12 16:00N 49°17' W 123°06'0 0.0
2017-Aug-12 15:30N 49°17' W 123°06'0 0.0
2017-Aug-12 14:59N 49°17' W 123°06'0 0.0
2017-Aug-12 14:29N 49°17' W 123°06'0 0.0
2017-Aug-12 14:00N 49°17' W 123°06'0 0.4
2017-Aug-12 13:31N 49°17' W 123°06'3 5.7
2017-Aug-12 13:00N 49°19' W 123°10'510.5
2017-Aug-12 12:31N 49°18' W 123°18'510.5
2017-Aug-12 12:01N 49°19' W 123°26'510.7
2017-Aug-12 11:31N 49°19' W 123°34'510.9
2017-Aug-12 11:00N 49°19' W 123°42'54137484.5
2017-Aug-12 11:00N 40°18' W 123°48'   260 / 261011.9 5.4 18.316.521.3

Dump ship's entire track history